sensor_id;sensor_type;location;lat;lon;timestamp;temperature;humidity
13148;DHT22;6639;50.956;4.242;2023-01-25T00:00:30;7.20;99.90
13148;DHT22;6639;50.956;4.242;2023-01-25T00:02:58;7.00;99.90
13148;DHT22;6639;50.956;4.242;2023-01-25T00:05:28;6.90;99.90
13148;DHT22;6639;50.956;4.242;2023-01-25T00:07:56;7.30;99.90
13148;DHT22;6639;50.956;4.242;2023-01-25T00:10:28;7.30;99.90
13148;DHT22;6639;50.956;4.242;2023-01-25T00:13:01;7.70;99.90
13148;DHT22;6639;50.956;4.242;2023-01-25T00:15:35;7.40;99.90
13148;DHT22;6639;50.956;4.242;2023-01-25T00:18:05;7.70;99.90
13148;DHT22;6639;50.956;4.242;2023-01-25T00:20:32;8.70;99.90
13148;DHT22;6639;50.956;4.242;2023-01-25T00:23:00;9.40;99.90
13148;DHT22;6639;50.956;4.242;2023-01-25T00:25:30;9.60;99.90
13148;DHT22;6639;50.956;4.242;2023-01-25T00:27:57;9.80;99.90
13148;DHT22;6639;50.956;4.242;2023-01-25T00:30:27;10.00;99.90
13148;DHT22;6639;50.956;4.242;2023-01-25T00:33:01;8.00;99.90
13148;DHT22;6639;50.956;4.242;2023-01-25T00:35:31;8.00;99.90
13148;DHT22;6639;50.956;4.242;2023-01-25T00:38:05;8.60;99.90
13148;DHT22;6639;50.956;4.242;2023-01-25T00:40:36;9.20;99.90
13148;DHT22;6639;50.956;4.242;2023-01-25T00:43:03;9.50;99.90
13148;DHT22;6639;50.956;4.242;2023-01-25T01:11:25;9.00;99.90
13148;DHT22;6639;50.956;4.242;2023-01-25T01:13:52;7.50;99.90
13148;DHT22;6639;50.956;4.242;2023-01-25T01:16:19;6.40;99.90
13148;DHT22;6639;50.956;4.242;2023-01-25T01:18:50;6.70;99.90
13148;DHT22;6639;50.956;4.242;2023-01-25T01:21:20;7.40;99.90
13148;DHT22;6639;50.956;4.242;2023-01-25T01:23:47;7.60;99.90
13148;DHT22;6639;50.956;4.242;2023-01-25T01:26:17;7.30;99.90
13148;DHT22;6639;50.956;4.242;2023-01-25T01:28:46;6.90;99.90
13148;DHT22;6639;50.956;4.242;2023-01-25T01:31:20;7.30;99.90
13148;DHT22;6639;50.956;4.242;2023-01-25T01:33:48;7.80;99.90
13148;DHT22;6639;50.956;4.242;2023-01-25T01:36:17;8.70;99.90
13148;DHT22;6639;50.956;4.242;2023-01-25T01:38:45;9.20;99.90
13148;DHT22;6639;50.956;4.242;2023-01-25T04:01:11;7.40;99.90
13148;DHT22;6639;50.956;4.242;2023-01-25T04:55:09;9.00;99.90
13148;DHT22;6639;50.956;4.242;2023-01-25T04:57:36;8.60;99.90
13148;DHT22;6639;50.956;4.242;2023-01-25T05:00:16;8.50;99.90
13148;DHT22;6639;50.956;4.242;2023-01-25T05:02:44;8.00;99.90
13148;DHT22;6639;50.956;4.242;2023-01-25T05:05:12;6.70;99.90
13148;DHT22;6639;50.956;4.242;2023-01-25T05:07:41;6.70;99.90
13148;DHT22;6639;50.956;4.242;2023-01-25T05:10:11;7.90;99.90
13148;DHT22;6639;50.956;4.242;2023-01-25T05:26:22;8.70;99.90
13148;DHT22;6639;50.956;4.242;2023-01-25T05:29:08;7.60;99.90
13148;DHT22;6639;50.956;4.242;2023-01-25T05:31:38;6.50;99.90
13148;DHT22;6639;50.956;4.242;2023-01-25T05:37:40;6.90;99.90
13148;DHT22;6639;50.956;4.242;2023-01-25T05:40:08;7.80;99.90
13148;DHT22;6639;50.956;4.242;2023-01-25T05:42:37;8.20;99.90
13148;DHT22;6639;50.956;4.242;2023-01-25T05:45:06;8.60;99.90
13148;DHT22;6639;50.956;4.242;2023-01-25T05:47:33;9.10;99.90
13148;DHT22;6639;50.956;4.242;2023-01-25T05:50:00;9.30;99.90
13148;DHT22;6639;50.956;4.242;2023-01-25T05:52:27;9.30;99.90
13148;DHT22;6639;50.956;4.242;2023-01-25T05:54:55;9.50;99.90
13148;DHT22;6639;50.956;4.242;2023-01-25T05:57:22;8.90;99.90
13148;DHT22;6639;50.956;4.242;2023-01-25T06:00:06;8.30;99.90
13148;DHT22;6639;50.956;4.242;2023-01-25T06:02:36;8.20;99.90
13148;DHT22;6639;50.956;4.242;2023-01-25T06:05:04;7.80;99.90
13148;DHT22;6639;50.956;4.242;2023-01-25T06:18:33;8.50;99.90
13148;DHT22;6639;50.956;4.242;2023-01-25T06:31:16;8.50;99.90
13148;DHT22;6639;50.956;4.242;2023-01-25T06:33:50;8.90;99.90
13148;DHT22;6639;50.956;4.242;2023-01-25T06:36:20;8.60;99.90
13148;DHT22;6639;50.956;4.242;2023-01-25T06:38:52;7.80;99.90
13148;DHT22;6639;50.956;4.242;2023-01-25T06:41:20;6.70;99.90
13148;DHT22;6639;50.956;4.242;2023-01-25T06:43:49;6.70;99.90
13148;DHT22;6639;50.956;4.242;2023-01-25T06:46:23;7.10;99.90
13148;DHT22;6639;50.956;4.242;2023-01-25T06:48:51;7.50;99.90
13148;DHT22;6639;50.956;4.242;2023-01-25T06:51:21;8.10;99.90
13148;DHT22;6639;50.956;4.242;2023-01-25T06:53:52;8.70;99.90
13148;DHT22;6639;50.956;4.242;2023-01-25T06:56:20;8.70;99.90
13148;DHT22;6639;50.956;4.242;2023-01-25T06:58:48;9.20;99.90
13148;DHT22;6639;50.956;4.242;2023-01-25T07:07:54;9.60;99.90
13148;DHT22;6639;50.956;4.242;2023-01-25T07:11:24;9.70;99.90
13148;DHT22;6639;50.956;4.242;2023-01-25T07:13:52;9.50;99.90
13148;DHT22;6639;50.956;4.242;2023-01-25T07:16:19;9.40;99.90
13148;DHT22;6639;50.956;4.242;2023-01-25T07:18:46;9.60;99.90
13148;DHT22;6639;50.956;4.242;2023-01-25T07:31:07;9.40;99.90
13148;DHT22;6639;50.956;4.242;2023-01-25T07:33:34;9.40;99.90
13148;DHT22;6639;50.956;4.242;2023-01-25T07:36:08;9.40;99.90
13148;DHT22;6639;50.956;4.242;2023-01-25T07:38:36;9.10;99.90
13148;DHT22;6639;50.956;4.242;2023-01-25T07:41:03;9.10;99.90
13148;DHT22;6639;50.956;4.242;2023-01-25T07:43:30;8.70;99.90
13148;DHT22;6639;50.956;4.242;2023-01-25T07:46:00;8.50;99.90
13148;DHT22;6639;50.956;4.242;2023-01-25T07:48:29;8.60;99.90
13148;DHT22;6639;50.956;4.242;2023-01-25T07:51:00;8.70;99.90
13148;DHT22;6639;50.956;4.242;2023-01-25T08:48:03;7.40;99.90
13148;DHT22;6639;50.956;4.242;2023-01-25T08:50:30;7.00;99.90
13148;DHT22;6639;50.956;4.242;2023-01-25T08:53:03;7.70;99.90
13148;DHT22;6639;50.956;4.242;2023-01-25T08:55:33;8.20;99.90
13148;DHT22;6639;50.956;4.242;2023-01-25T08:58:01;7.70;99.90
13148;DHT22;6639;50.956;4.242;2023-01-25T09:00:28;7.70;99.90
13148;DHT22;6639;50.956;4.242;2023-01-25T09:03:11;7.30;99.90
13148;DHT22;6639;50.956;4.242;2023-01-25T09:05:38;7.80;99.90
13148;DHT22;6639;50.956;4.242;2023-01-25T09:08:09;7.30;99.90
13148;DHT22;6639;50.956;4.242;2023-01-25T09:10:39;7.60;99.90
13148;DHT22;6639;50.956;4.242;2023-01-25T09:26:05;6.00;99.90
13148;DHT22;6639;50.956;4.242;2023-01-25T09:28:36;5.70;99.90
13148;DHT22;6639;50.956;4.242;2023-01-25T09:31:09;6.10;99.90
13148;DHT22;6639;50.956;4.242;2023-01-25T09:33:43;6.20;99.90
13148;DHT22;6639;50.956;4.242;2023-01-25T09:36:10;7.20;99.90
13148;DHT22;6639;50.956;4.242;2023-01-25T09:38:46;7.40;99.90
13148;DHT22;6639;50.956;4.242;2023-01-25T09:41:37;7.90;99.90
13148;DHT22;6639;50.956;4.242;2023-01-25T09:44:19;8.10;99.90
13148;DHT22;6639;50.956;4.242;2023-01-25T09:46:54;8.00;99.90
13148;DHT22;6639;50.956;4.242;2023-01-25T09:49:34;8.20;99.90
13148;DHT22;6639;50.956;4.242;2023-01-25T09:52:18;8.00;99.90
13148;DHT22;6639;50.956;4.242;2023-01-25T09:54:52;8.10;99.90
13148;DHT22;6639;50.956;4.242;2023-01-25T09:57:26;8.10;99.90
13148;DHT22;6639;50.956;4.242;2023-01-25T10:00:20;8.50;99.90
13148;DHT22;6639;50.956;4.242;2023-01-25T10:02:54;8.70;99.90
13148;DHT22;6639;50.956;4.242;2023-01-25T10:05:30;8.80;99.90
13148;DHT22;6639;50.956;4.242;2023-01-25T10:08:14;8.70;99.90
13148;DHT22;6639;50.956;4.242;2023-01-25T10:14:50;9.10;99.90
13148;DHT22;6639;50.956;4.242;2023-01-25T10:17:24;9.00;99.90
13148;DHT22;6639;50.956;4.242;2023-01-25T10:20:06;8.60;99.90
13148;DHT22;6639;50.956;4.242;2023-01-25T10:22:44;7.70;99.90
13148;DHT22;6639;50.956;4.242;2023-01-25T10:25:30;8.00;99.90
13148;DHT22;6639;50.956;4.242;2023-01-25T10:28:19;8.20;99.90
13148;DHT22;6639;50.956;4.242;2023-01-25T10:30:57;8.90;99.90
13148;DHT22;6639;50.956;4.242;2023-01-25T10:33:26;9.30;99.90
13148;DHT22;6639;50.956;4.242;2023-01-25T10:35:57;9.40;99.90
13148;DHT22;6639;50.956;4.242;2023-01-25T10:38:37;9.40;99.90
13148;DHT22;6639;50.956;4.242;2023-01-25T10:41:09;9.20;99.90
13148;DHT22;6639;50.956;4.242;2023-01-25T10:43:38;9.20;99.90
13148;DHT22;6639;50.956;4.242;2023-01-25T10:46:18;9.50;99.90
13148;DHT22;6639;50.956;4.242;2023-01-25T10:48:47;8.80;99.90
13148;DHT22;6639;50.956;4.242;2023-01-25T10:51:32;8.90;99.90
13148;DHT22;6639;50.956;4.242;2023-01-25T10:54:02;8.70;99.90
13148;DHT22;6639;50.956;4.242;2023-01-25T10:56:29;9.30;99.90
13148;DHT22;6639;50.956;4.242;2023-01-25T10:59:12;9.60;99.90
13148;DHT22;6639;50.956;4.242;2023-01-25T11:01:43;10.00;99.90
13148;DHT22;6639;50.956;4.242;2023-01-25T11:04:31;10.10;99.90
13148;DHT22;6639;50.956;4.242;2023-01-25T11:07:01;10.10;99.90
13148;DHT22;6639;50.956;4.242;2023-01-25T11:09:32;9.90;99.90
13148;DHT22;6639;50.956;4.242;2023-01-25T11:12:04;9.70;99.90
13148;DHT22;6639;50.956;4.242;2023-01-25T11:14:33;9.80;99.90
13148;DHT22;6639;50.956;4.242;2023-01-25T11:17:04;9.80;99.90
13148;DHT22;6639;50.956;4.242;2023-01-25T11:19:36;9.80;99.90
13148;DHT22;6639;50.956;4.242;2023-01-25T11:22:05;9.60;99.90
13148;DHT22;6639;50.956;4.242;2023-01-25T11:24:46;9.70;99.90
13148;DHT22;6639;50.956;4.242;2023-01-25T11:27:17;9.30;99.90
13148;DHT22;6639;50.956;4.242;2023-01-25T11:29:45;9.50;99.90
13148;DHT22;6639;50.956;4.242;2023-01-25T11:32:18;9.30;99.90
13148;DHT22;6639;50.956;4.242;2023-01-25T11:35:01;8.70;99.90
13148;DHT22;6639;50.956;4.242;2023-01-25T11:37:39;9.10;99.90
13148;DHT22;6639;50.956;4.242;2023-01-25T11:40:15;8.80;99.90
13148;DHT22;6639;50.956;4.242;2023-01-25T11:42:57;9.00;99.90
13148;DHT22;6639;50.956;4.242;2023-01-25T11:51:32;9.20;99.90
13148;DHT22;6639;50.956;4.242;2023-01-25T11:54:38;9.00;99.90
13148;DHT22;6639;50.956;4.242;2023-01-25T11:57:32;8.60;99.90
13148;DHT22;6639;50.956;4.242;2023-01-25T12:00:16;8.50;99.90
13148;DHT22;6639;50.956;4.242;2023-01-25T12:06:08;7.90;99.90
13148;DHT22;6639;50.956;4.242;2023-01-25T12:08:57;7.90;99.90
13148;DHT22;6639;50.956;4.242;2023-01-25T12:24:41;7.90;99.90
13148;DHT22;6639;50.956;4.242;2023-01-25T12:27:19;8.40;99.90
13148;DHT22;6639;50.956;4.242;2023-01-25T12:29:55;8.40;99.90
13148;DHT22;6639;50.956;4.242;2023-01-25T12:32:27;8.60;99.90
13148;DHT22;6639;50.956;4.242;2023-01-25T12:35:12;8.80;99.90
13148;DHT22;6639;50.956;4.242;2023-01-25T12:37:44;9.10;99.90
13148;DHT22;6639;50.956;4.242;2023-01-25T12:40:23;9.10;99.90
13148;DHT22;6639;50.956;4.242;2023-01-25T12:43:01;9.40;99.90
13148;DHT22;6639;50.956;4.242;2023-01-25T12:45:31;9.00;99.90
13148;DHT22;6639;50.956;4.242;2023-01-25T12:48:04;9.00;99.90
13148;DHT22;6639;50.956;4.242;2023-01-25T12:50:40;9.40;99.90
13148;DHT22;6639;50.956;4.242;2023-01-25T12:53:15;9.40;99.90
13148;DHT22;6639;50.956;4.242;2023-01-25T12:55:45;9.10;99.90
13148;DHT22;6639;50.956;4.242;2023-01-25T12:58:19;9.20;99.90
13148;DHT22;6639;50.956;4.242;2023-01-25T13:00:52;8.90;99.90
13148;DHT22;6639;50.956;4.242;2023-01-25T13:13:19;8.30;99.90
13148;DHT22;6639;50.956;4.242;2023-01-25T13:15:47;8.80;99.90
13148;DHT22;6639;50.956;4.242;2023-01-25T13:18:44;9.10;99.90
13148;DHT22;6639;50.956;4.242;2023-01-25T13:21:37;9.20;99.90
13148;DHT22;6639;50.956;4.242;2023-01-25T13:24:17;9.50;99.90
13148;DHT22;6639;50.956;4.242;2023-01-25T13:27:02;9.60;99.90
13148;DHT22;6639;50.956;4.242;2023-01-25T14:00:36;8.70;99.90
13148;DHT22;6639;50.956;4.242;2023-01-25T14:03:04;8.90;99.90
13148;DHT22;6639;50.956;4.242;2023-01-25T14:05:34;8.80;99.90
13148;DHT22;6639;50.956;4.242;2023-01-25T14:08:02;8.60;99.90
13148;DHT22;6639;50.956;4.242;2023-01-25T14:13:55;8.40;99.90
13148;DHT22;6639;50.956;4.242;2023-01-25T14:16:23;8.30;99.90
13148;DHT22;6639;50.956;4.242;2023-01-25T14:18:53;8.00;99.90
13148;DHT22;6639;50.956;4.242;2023-01-25T14:21:23;8.30;99.90
13148;DHT22;6639;50.956;4.242;2023-01-25T14:23:50;7.80;99.90
13148;DHT22;6639;50.956;4.242;2023-01-25T14:26:21;7.80;99.90
13148;DHT22;6639;50.956;4.242;2023-01-25T14:28:55;8.30;99.90
13148;DHT22;6639;50.956;4.242;2023-01-25T14:31:26;8.80;99.90
13148;DHT22;6639;50.956;4.242;2023-01-25T14:33:56;8.70;99.90
13148;DHT22;6639;50.956;4.242;2023-01-25T14:36:27;7.90;99.90
13148;DHT22;6639;50.956;4.242;2023-01-25T14:38:56;8.00;99.90
13148;DHT22;6639;50.956;4.242;2023-01-25T14:41:27;8.30;99.90
13148;DHT22;6639;50.956;4.242;2023-01-25T14:44:00;7.50;99.90
13148;DHT22;6639;50.956;4.242;2023-01-25T14:47:34;7.90;99.90
13148;DHT22;6639;50.956;4.242;2023-01-25T14:50:30;7.40;99.90
13148;DHT22;6639;50.956;4.242;2023-01-25T14:52:58;6.90;99.90
13148;DHT22;6639;50.956;4.242;2023-01-25T14:55:33;6.90;99.90
13148;DHT22;6639;50.956;4.242;2023-01-25T14:58:16;7.30;99.90
13148;DHT22;6639;50.956;4.242;2023-01-25T15:08:37;7.90;99.90
13148;DHT22;6639;50.956;4.242;2023-01-25T15:14:47;7.90;99.90
13148;DHT22;6639;50.956;4.242;2023-01-25T15:24:13;7.80;99.90
13148;DHT22;6639;50.956;4.242;2023-01-25T15:26:41;8.10;99.90
13148;DHT22;6639;50.956;4.242;2023-01-25T15:29:13;8.40;99.90
13148;DHT22;6639;50.956;4.242;2023-01-25T15:52:25;7.30;99.90
13148;DHT22;6639;50.956;4.242;2023-01-25T15:54:52;7.30;99.90
13148;DHT22;6639;50.956;4.242;2023-01-25T15:57:25;7.30;99.90
13148;DHT22;6639;50.956;4.242;2023-01-25T15:59:53;6.70;99.90
13148;DHT22;6639;50.956;4.242;2023-01-25T16:02:22;6.50;99.90
13148;DHT22;6639;50.956;4.242;2023-01-25T16:04:51;6.30;99.90
13148;DHT22;6639;50.956;4.242;2023-01-25T16:07:23;6.40;99.90
13148;DHT22;6639;50.956;4.242;2023-01-25T16:09:59;6.70;99.90
13148;DHT22;6639;50.956;4.242;2023-01-25T16:34:56;6.80;99.90
13148;DHT22;6639;50.956;4.242;2023-01-25T16:41:11;6.40;99.90
13148;DHT22;6639;50.956;4.242;2023-01-25T16:47:13;7.00;99.90
13148;DHT22;6639;50.956;4.242;2023-01-25T16:49:52;7.30;99.90
13148;DHT22;6639;50.956;4.242;2023-01-25T16:59:11;6.90;99.90
13148;DHT22;6639;50.956;4.242;2023-01-25T17:01:41;7.30;99.90
13148;DHT22;6639;50.956;4.242;2023-01-25T17:04:09;7.40;99.90
13148;DHT22;6639;50.956;4.242;2023-01-25T17:06:45;7.60;99.90
13148;DHT22;6639;50.956;4.242;2023-01-25T17:09:16;7.40;99.90
13148;DHT22;6639;50.956;4.242;2023-01-25T17:11:44;7.20;99.90
13148;DHT22;6639;50.956;4.242;2023-01-25T18:19:42;4.60;99.90
13148;DHT22;6639;50.956;4.242;2023-01-25T18:22:13;4.90;99.90
13148;DHT22;6639;50.956;4.242;2023-01-25T18:24:41;5.00;99.90
13148;DHT22;6639;50.956;4.242;2023-01-25T21:38:18;6.60;99.90
13148;DHT22;6639;50.956;4.242;2023-01-25T21:40:49;7.10;99.90
13148;DHT22;6639;50.956;4.242;2023-01-25T21:43:23;7.10;99.90
13148;DHT22;6639;50.956;4.242;2023-01-25T21:45:50;6.50;99.90
13148;DHT22;6639;50.956;4.242;2023-01-25T21:49:02;6.70;99.90
13148;DHT22;6639;50.956;4.242;2023-01-25T21:52:06;7.00;99.90
13148;DHT22;6639;50.956;4.242;2023-01-25T21:54:36;7.10;99.90
13148;DHT22;6639;50.956;4.242;2023-01-25T22:00:42;6.50;99.90
13148;DHT22;6639;50.956;4.242;2023-01-25T22:03:11;6.20;99.90
13148;DHT22;6639;50.956;4.242;2023-01-25T22:05:41;5.90;99.90
13148;DHT22;6639;50.956;4.242;2023-01-25T22:08:08;6.00;99.90
13148;DHT22;6639;50.956;4.242;2023-01-25T22:20:24;6.00;99.90
13148;DHT22;6639;50.956;4.242;2023-01-25T22:22:55;6.50;99.90
13148;DHT22;6639;50.956;4.242;2023-01-25T22:32:32;6.00;99.90
13148;DHT22;6639;50.956;4.242;2023-01-25T22:34:59;6.10;99.90
13148;DHT22;6639;50.956;4.242;2023-01-25T22:37:27;6.40;99.90
13148;DHT22;6639;50.956;4.242;2023-01-25T22:39:57;5.90;99.90
13148;DHT22;6639;50.956;4.242;2023-01-25T22:43:09;6.20;99.90
13148;DHT22;6639;50.956;4.242;2023-01-25T22:46:46;6.10;99.90
13148;DHT22;6639;50.956;4.242;2023-01-25T22:49:15;5.80;99.90
13148;DHT22;6639;50.956;4.242;2023-01-25T22:51:42;6.00;99.90
13148;DHT22;6639;50.956;4.242;2023-01-25T22:54:10;5.40;99.90
13148;DHT22;6639;50.956;4.242;2023-01-25T22:56:38;5.60;99.90
13148;DHT22;6639;50.956;4.242;2023-01-25T22:59:10;6.00;99.90
13148;DHT22;6639;50.956;4.242;2023-01-25T23:01:39;6.40;99.90
13148;DHT22;6639;50.956;4.242;2023-01-25T23:04:06;6.70;99.90
13148;DHT22;6639;50.956;4.242;2023-01-25T23:06:35;6.80;99.90
13148;DHT22;6639;50.956;4.242;2023-01-25T23:09:10;6.40;99.90
13148;DHT22;6639;50.956;4.242;2023-01-25T23:11:40;6.50;99.90
13148;DHT22;6639;50.956;4.242;2023-01-25T23:14:11;6.50;99.90
13148;DHT22;6639;50.956;4.242;2023-01-25T23:16:56;6.30;99.90
13148;DHT22;6639;50.956;4.242;2023-01-25T23:19:43;6.50;99.90
13148;DHT22;6639;50.956;4.242;2023-01-25T23:22:09;6.30;99.90
13148;DHT22;6639;50.956;4.242;2023-01-25T23:24:40;6.30;99.90
13148;DHT22;6639;50.956;4.242;2023-01-25T23:27:41;6.40;99.90
13148;DHT22;6639;50.956;4.242;2023-01-25T23:30:26;6.60;99.90
13148;DHT22;6639;50.956;4.242;2023-01-25T23:32:56;6.80;99.90
13148;DHT22;6639;50.956;4.242;2023-01-25T23:35:26;7.10;99.90
13148;DHT22;6639;50.956;4.242;2023-01-25T23:37:53;6.70;99.90
13148;DHT22;6639;50.956;4.242;2023-01-25T23:40:24;6.80;99.90
13148;DHT22;6639;50.956;4.242;2023-01-25T23:46:59;6.40;99.90
13148;DHT22;6639;50.956;4.242;2023-01-25T23:49:44;6.40;99.90
13148;DHT22;6639;50.956;4.242;2023-01-25T23:52:11;6.60;99.90
13148;DHT22;6639;50.956;4.242;2023-01-25T23:54:38;6.70;99.90
13148;DHT22;6639;50.956;4.242;2023-01-25T23:57:07;7.00;99.90
13148;DHT22;6639;50.956;4.242;2023-01-25T23:59:34;7.00;99.90
